Time;durP1;ratioP1;P1;durP2;ratioP2;P2;SDS_P1;SDS_P2;PMS_P1;PMS_P2;Temp;Humidity;BMP_temperature;BMP_pressure;BME280_temperature;BME280_humidity;BME280_pressure;Samples;Min_cycle;Max_cycle;Signal;HPM_P1;HPM_P2
2022/11/20 06:03:32;;;;;;;23.63;13.30;;;;;;;-1.20;83.12;101138.44;5042684;28;20083;-74
2022/11/20 06:05:59;;;;;;;25.40;13.02;;;;;;;-1.22;83.45;101132.44;5057127;28;20028;-74
2022/11/20 06:08:24;;;;;;;26.55;13.23;;;;;;;-1.23;83.61;101136.25;5059222;28;20082;-74
2022/11/20 06:10:49;;;;;;;24.98;12.93;;;;;;;-1.25;83.80;101138.50;5053711;28;20025;-74
2022/11/20 06:13:15;;;;;;;25.63;13.48;;;;;;;-1.26;83.67;101142.34;5082543;22;20113;-74
2022/11/20 06:15:40;;;;;;;27.27;13.30;;;;;;;-1.26;83.93;101143.16;5056195;28;20071;-74
2022/11/20 06:18:05;;;;;;;29.77;13.40;;;;;;;-1.29;83.82;101142.94;5047142;28;20028;-74
2022/11/20 06:20:31;;;;;;;28.33;12.60;;;;;;;-1.31;84.04;101134.16;5056626;28;20041;-74
2022/11/20 06:22:56;;;;;;;23.08;12.35;;;;;;;-1.20;83.95;101129.38;5061051;28;20036;-74
2022/11/20 06:25:21;;;;;;;27.35;12.88;;;;;;;-1.22;83.89;101129.69;5059440;28;20036;-74
2022/11/20 06:27:47;;;;;;;26.73;13.40;;;;;;;-1.16;83.83;101131.25;5056303;28;20326;-73
2022/11/20 06:30:12;;;;;;;25.73;14.07;;;;;;;-1.18;83.94;101141.72;5056226;28;20032;-74
2022/11/20 06:32:37;;;;;;;23.63;13.45;;;;;;;-1.15;84.06;101135.63;5057059;28;20036;-74
2022/11/20 06:35:03;;;;;;;22.80;12.82;;;;;;;-1.21;83.83;101139.53;5051978;28;20040;-74
2022/11/20 06:37:28;;;;;;;29.73;13.93;;;;;;;-1.37;84.98;101141.66;5055716;28;20040;-74
2022/11/20 06:39:54;;;;;;;24.75;12.98;;;;;;;-1.23;84.52;101147.25;5055398;28;20044;-74
2022/11/20 06:42:19;;;;;;;24.02;12.57;;;;;;;-1.31;84.72;101151.44;5058322;28;20123;-74
2022/11/20 06:44:44;;;;;;;23.25;12.70;;;;;;;-1.28;84.91;101152.81;5057214;28;20479;-74
2022/11/20 06:47:10;;;;;;;25.65;14.30;;;;;;;-1.27;84.58;101152.50;5055152;28;20039;-74
2022/11/20 06:49:36;;;;;;;23.98;13.02;;;;;;;-1.27;84.28;101149.75;5060403;28;20434;-74
2022/11/20 06:52:02;;;;;;;25.77;13.95;;;;;;;-1.37;84.52;101147.16;5057862;28;20587;-74
2022/11/20 06:54:27;;;;;;;24.77;13.35;;;;;;;-1.37;84.51;101146.31;5060502;28;20625;-74
2022/11/20 06:56:53;;;;;;;25.75;13.63;;;;;;;-1.29;84.37;101153.91;5062697;28;20081;-75
2022/11/20 06:59:18;;;;;;;27.42;14.27;;;;;;;-1.22;84.06;101154.41;5062146;28;21244;-74
2022/11/20 07:01:43;;;;;;;23.00;11.93;;;;;;;-1.29;84.05;101148.41;5044305;28;20032;-74
2022/11/20 07:04:09;;;;;;;26.38;13.13;;;;;;;-1.38;84.44;101155.66;5032742;28;20060;-74
2022/11/20 07:06:34;;;;;;;25.05;13.15;;;;;;;-1.49;85.42;101155.78;5034643;28;20136;-74
2022/11/20 07:08:59;;;;;;;26.95;12.13;;;;;;;-1.43;84.76;101151.06;5029707;28;20703;-74
2022/11/20 07:11:24;;;;;;;22.58;13.18;;;;;;;-1.32;84.84;101149.00;5032542;28;20143;-74
2022/11/20 07:13:50;;;;;;;26.05;13.40;;;;;;;-1.30;84.68;101149.53;5034989;28;20535;-74
2022/11/20 07:16:15;;;;;;;24.05;12.73;;;;;;;-1.27;84.77;101155.25;5033121;28;20120;-74
2022/11/20 07:18:41;;;;;;;26.40;13.18;;;;;;;-1.25;84.45;101149.47;5028291;28;20114;-74
2022/11/20 07:21:09;;;;;;;23.92;13.57;;;;;;;-1.28;84.70;101144.56;5032881;28;20025;-74
2022/11/20 07:23:34;;;;;;;25.23;12.75;;;;;;;-1.29;85.07;101141.00;5040414;28;20074;-74
2022/11/20 07:26:08;;;;;;;24.67;13.35;;;;;;;-1.23;84.83;101147.25;5042665;28;20025;-74
2022/11/20 07:28:34;;;;;;;26.90;12.43;;;;;;;-1.32;85.00;101143.53;5033180;28;20456;-74
2022/11/20 07:30:59;;;;;;;21.63;13.15;;;;;;;-1.34;85.47;101137.50;5034543;28;21142;-74
2022/11/20 07:33:25;;;;;;;28.15;14.32;;;;;;;-1.50;86.31;101123.91;5036283;28;20021;-74
2022/11/20 07:35:50;;;;;;;22.85;11.88;;;;;;;-1.36;86.04;101134.22;5037463;28;20064;-74
2022/11/20 07:38:15;;;;;;;30.95;14.55;;;;;;;-1.32;85.97;101129.78;5039214;28;20033;-74
2022/11/20 07:40:41;;;;;;;24.45;13.10;;;;;;;-1.36;86.24;101126.00;5042846;28;20033;-75
2022/11/20 07:43:06;;;;;;;24.63;13.13;;;;;;;-1.30;86.02;101120.16;5042524;28;20021;-75
2022/11/20 07:45:31;;;;;;;29.75;14.88;;;;;;;-1.42;87.05;101111.50;5044984;28;20044;-74
2022/11/20 07:47:57;;;;;;;27.85;14.48;;;;;;;-1.41;86.70;101112.31;5040109;28;20032;-74
2022/11/20 07:50:22;;;;;;;27.25;14.15;;;;;;;-1.36;87.17;101112.25;5041753;28;20091;-74
2022/11/20 07:52:48;;;;;;;26.67;13.93;;;;;;;-1.50;87.76;101101.94;5038228;28;20443;-75
2022/11/20 07:55:13;;;;;;;25.73;13.52;;;;;;;-1.38;87.43;101114.47;5037374;28;21941;-75
2022/11/20 07:57:39;;;;;;;30.00;14.07;;;;;;;-1.46;87.58;101111.25;5036162;28;20033;-75
2022/11/20 08:00:06;;;;;;;32.35;14.60;;;;;;;-1.57;88.74;101119.91;5034828;28;20039;-75
2022/11/20 08:02:32;;;;;;;25.27;14.45;;;;;;;-1.61;89.71;101125.13;5033253;28;20025;-75
2022/11/20 08:04:57;;;;;;;27.35;13.77;;;;;;;-1.56;88.70;101116.88;5038089;28;20025;-74
2022/11/20 08:07:22;;;;;;;30.77;15.05;;;;;;;-1.50;89.33;101112.13;5031230;28;20095;-74
2022/11/20 08:09:48;;;;;;;28.55;14.55;;;;;;;-1.62;90.01;101107.03;5031820;28;20733;-74
2022/11/20 08:15:05;;;;;;;26.65;14.38;;;;;;;-1.41;89.20;101112.31;5034787;28;20044;-74
2022/11/20 08:17:30;;;;;;;27.88;15.75;;;;;;;-1.30;88.52;101111.09;5030571;28;20033;-74
2022/11/20 08:19:56;;;;;;;29.50;14.98;;;;;;;-1.31;88.32;101107.50;5032871;28;20051;-74
2022/11/20 08:22:21;;;;;;;30.60;15.95;;;;;;;-1.09;87.47;101112.47;5048906;28;20067;-74
2022/11/20 08:24:47;;;;;;;32.40;16.30;;;;;;;-1.31;88.56;101114.94;5038239;28;20025;-73
2022/11/20 08:27:13;;;;;;;31.02;16.45;;;;;;;-1.30;89.33;101109.16;5033199;28;20040;-78
2022/11/20 08:29:38;;;;;;;32.50;14.80;;;;;;;-1.09;87.83;101098.75;5038139;28;20025;-78
2022/11/20 08:32:03;;;;;;;30.67;16.58;;;;;;;-0.94;87.85;101099.66;5056609;28;20107;-77
2022/11/20 08:34:29;;;;;;;32.60;16.27;;;;;;;-1.02;88.00;101099.19;5040567;28;20113;-77
2022/11/20 08:36:54;;;;;;;30.40;16.60;;;;;;;-1.09;92.05;101082.25;5039407;28;20116;-74
2022/11/20 08:39:19;;;;;;;31.85;16.98;;;;;;;-0.86;87.74;101085.28;5039991;28;20024;-74
2022/11/20 08:41:45;;;;;;;33.78;17.15;;;;;;;-0.75;86.81;101081.25;5047310;28;20025;-74
2022/11/20 08:44:11;;;;;;;30.73;15.88;;;;;;;-0.80;86.85;101092.34;5047885;28;20131;-74
2022/11/20 08:46:40;;;;;;;29.08;14.90;;;;;;;-0.80;87.04;101078.59;5039167;28;20116;-75
2022/11/20 08:49:10;;;;;;;35.38;16.95;;;;;;;-0.76;86.80;101082.38;5039587;28;20032;-74
2022/11/20 08:51:37;;;;;;;32.10;15.70;;;;;;;-0.70;86.30;101072.94;5057434;28;20067;-74
2022/11/20 08:54:04;;;;;;;35.60;16.75;;;;;;;-0.80;87.14;101084.09;5044732;28;20052;-74
2022/11/20 08:56:29;;;;;;;28.08;16.33;;;;;;;-0.85;87.54;101081.41;5045200;28;20032;-74
2022/11/20 08:58:54;;;;;;;28.92;16.92;;;;;;;-1.16;89.26;101076.31;5042014;28;20499;-74
2022/11/20 09:01:21;;;;;;;33.30;16.02;;;;;;;-1.02;88.92;101076.41;5042906;28;20025;-75
2022/11/20 09:03:49;;;;;;;34.72;17.27;;;;;;;-0.98;88.54;101082.13;5031847;28;20095;-74
2022/11/20 09:06:15;;;;;;;29.40;14.90;;;;;;;-0.77;87.94;101071.69;5039574;28;20033;-74
2022/11/20 09:08:40;;;;;;;33.58;17.42;;;;;;;-0.75;87.47;101075.75;5044240;28;20029;-74
2022/11/20 09:11:07;;;;;;;34.08;16.48;;;;;;;-0.69;87.37;101076.50;5044203;28;20187;-74
2022/11/20 09:13:34;;;;;;;31.90;16.58;;;;;;;-0.71;87.76;101081.50;5041771;28;20511;-74
2022/11/20 09:16:02;;;;;;;28.92;16.05;;;;;;;-0.55;87.41;101074.63;5039304;28;20044;-74
2022/11/20 09:18:28;;;;;;;30.77;15.77;;;;;;;-0.45;87.69;101073.66;5034336;28;20082;-74
2022/11/20 09:20:58;;;;;;;31.60;16.98;;;;;;;-0.41;86.39;101063.69;5042378;28;20119;-74
2022/11/20 09:23:24;;;;;;;31.10;17.23;;;;;;;-0.37;87.19;101064.75;5041689;28;20038;-75
2022/11/20 09:25:49;;;;;;;30.30;16.90;;;;;;;-0.36;86.80;101074.59;5041102;28;20434;-74
2022/11/20 09:28:16;;;;;;;29.23;16.90;;;;;;;-0.40;87.60;101062.59;5040738;28;20473;-75
2022/11/20 09:30:41;;;;;;;29.30;15.90;;;;;;;-0.32;86.35;101059.16;5037321;28;20033;-74
2022/11/20 09:33:06;;;;;;;27.42;15.32;;;;;;;-0.33;86.12;101060.28;5038659;28;20052;-73
2022/11/20 09:35:33;;;;;;;26.30;14.95;;;;;;;-0.28;85.53;101053.88;5035986;28;20032;-74
2022/11/20 09:37:58;;;;;;;26.63;14.00;;;;;;;-0.25;85.50;101065.09;5037739;28;20120;-74
2022/11/20 09:40:27;;;;;;;28.33;13.45;;;;;;;-0.23;84.91;101057.38;5037434;28;20033;-73
2022/11/20 09:43:03;;;;;;;34.40;15.48;;;;;;;-0.42;83.30;101056.59;5033640;28;20024;-74
2022/11/20 09:45:46;;;;;;;23.25;13.13;;;;;;;-0.33;83.62;101049.28;5036758;28;20033;-73
2022/11/20 09:48:18;;;;;;;26.25;14.55;;;;;;;-0.20;84.42;101053.19;5040045;28;20025;-73
2022/11/20 09:51:11;;;;;;;27.10;14.05;;;;;;;-0.18;83.54;101039.13;5044127;28;20759;-73
2022/11/20 09:53:51;;;;;;;27.17;13.00;;;;;;;-0.28;81.31;101053.88;5057938;28;20148;-74
2022/11/20 09:56:18;;;;;;;25.30;12.80;;;;;;;-0.21;82.31;101035.88;5042968;28;20625;-74
2022/11/20 09:58:47;;;;;;;24.90;12.88;;;;;;;-0.02;82.62;101041.31;5043609;28;20116;-73
2022/11/20 10:01:16;;;;;;;27.23;13.52;;;;;;;0.04;82.24;101031.00;5038518;28;20037;-74
2022/11/20 10:03:50;;;;;;;27.77;14.43;;;;;;;0.06;80.36;101023.28;5045209;28;20032;-74
2022/11/20 10:06:21;;;;;;;25.30;13.45;;;;;;;0.15;79.94;101018.72;5045903;28;20313;-78
2022/11/20 10:09:13;;;;;;;24.58;12.32;;;;;;;0.44;79.52;101023.09;5036565;28;20029;-79
2022/11/20 10:12:00;;;;;;;27.70;12.63;;;;;;;0.25;76.92;101025.13;5011370;28;20309;-76
2022/11/20 10:15:03;;;;;;;23.50;13.05;;;;;;;0.14;77.63;101024.50;5033142;28;20072;-78
2022/11/20 10:17:55;;;;;;;25.20;14.40;;;;;;;0.13;76.90;101017.41;5033967;28;20017;-78
2022/11/20 10:20:46;;;;;;;29.73;12.98;;;;;;;0.17;78.22;101016.47;5027317;28;20340;-75
2022/11/20 10:23:30;;;;;;;24.95;11.98;;;;;;;0.18;78.33;101009.03;5038650;28;20033;-79
2022/11/20 10:26:03;;;;;;;25.52;13.50;;;;;;;0.20;79.03;101007.59;5053452;28;20558;-78
2022/11/20 10:29:11;;;;;;;27.27;14.82;;;;;;;0.25;79.05;101003.91;5036918;28;20030;-77
2022/11/20 10:31:39;;;;;;;26.75;13.52;;;;;;;0.23;77.53;100999.84;5040849;28;20033;-78
2022/11/20 10:34:17;;;;;;;24.38;13.20;;;;;;;0.30;78.88;100994.78;5034967;28;20496;-77
2022/11/20 10:36:49;;;;;;;25.80;13.05;;;;;;;0.32;79.00;100998.03;5030828;28;20032;-78
2022/11/20 10:39:24;;;;;;;25.85;13.43;;;;;;;0.42;77.80;100986.78;5041831;28;20048;-78
2022/11/20 10:41:52;;;;;;;28.90;14.55;;;;;;;0.44;78.77;100987.28;5049419;28;20408;-76
2022/11/20 10:47:12;;;;;;;29.75;14.75;;;;;;;0.45;79.20;100974.38;5047502;28;20047;-77
2022/11/20 10:49:38;;;;;;;29.40;14.48;;;;;;;0.68;79.63;100978.00;5068364;28;20035;-78
2022/11/20 10:52:25;;;;;;;31.48;14.88;;;;;;;0.53;81.74;100979.16;5050163;28;20033;-78
2022/11/20 10:55:12;;;;;;;28.67;14.50;;;;;;;0.62;83.34;100973.72;5044914;28;20033;-75
2022/11/20 10:57:59;;;;;;;27.52;14.75;;;;;;;0.56;83.57;100970.25;5046783;28;20024;-78
2022/11/20 11:00:25;;;;;;;29.38;16.05;;;;;;;0.63;84.07;100969.84;5051269;28;20068;-78
2022/11/20 11:02:53;;;;;;;31.73;15.43;;;;;;;0.80;83.67;100970.84;5053363;28;20084;-76
2022/11/20 11:05:44;;;;;;;25.55;15.00;;;;;;;0.79;83.85;100973.91;5042358;28;20884;-76
2022/11/20 11:08:17;;;;;;;27.02;15.88;;;;;;;0.76;85.38;100969.00;5045566;28;20029;-77
2022/11/20 11:10:56;;;;;;;33.67;15.38;;;;;;;0.82;85.67;100956.72;5039463;28;20029;-76
2022/11/20 11:13:30;;;;;;;32.67;16.58;;;;;;;0.97;85.58;100961.91;5043281;28;20064;-77
2022/11/20 11:15:56;;;;;;;37.40;16.77;;;;;;;1.07;86.40;100966.34;5042842;28;20467;-78
2022/11/20 11:18:31;;;;;;;29.60;15.60;;;;;;;1.13;87.45;100967.06;5044074;28;20071;-77
2022/11/20 11:20:59;;;;;;;33.90;18.58;;;;;;;1.14;90.04;100952.97;5046321;28;20033;-78
2022/11/20 11:23:36;;;;;;;34.97;17.92;;;;;;;1.13;90.92;100942.25;5054582;28;20508;-78
2022/11/20 11:26:05;;;;;;;36.33;16.98;;;;;;;1.16;90.48;100955.41;5045773;28;20092;-78
2022/11/20 11:28:31;;;;;;;35.50;17.23;;;;;;;1.20;93.08;100942.63;5043034;28;20756;-77
2022/11/20 11:30:57;;;;;;;32.42;16.25;;;;;;;1.21;92.65;100927.72;5040648;28;20059;-78
2022/11/20 11:33:28;;;;;;;30.52;16.85;;;;;;;1.18;93.21;100920.91;5048338;28;20025;-76
2022/11/20 11:36:01;;;;;;;33.50;16.58;;;;;;;1.31;92.20;100930.22;5045816;28;20538;-78
2022/11/20 11:38:39;;;;;;;33.40;17.35;;;;;;;1.37;93.43;100919.84;5042238;28;20475;-78
2022/11/20 11:41:08;;;;;;;32.97;17.30;;;;;;;1.50;93.27;100907.94;5044929;28;20357;-77
2022/11/20 11:46:20;;;;;;;33.28;17.70;;;;;;;1.56;92.89;100909.44;5045639;28;20039;-76
2022/11/20 11:48:57;;;;;;;32.33;17.33;;;;;;;1.55;93.05;100901.47;5040019;28;20029;-77
2022/11/20 11:51:23;;;;;;;28.63;17.02;;;;;;;1.55;93.17;100902.28;5033288;28;20391;-77
2022/11/20 11:53:49;;;;;;;29.38;15.77;;;;;;;1.58;94.16;100900.84;5035110;28;20037;-77
2022/11/20 11:56:15;;;;;;;32.22;15.70;;;;;;;1.71;94.04;100899.94;5028203;28;20108;-76
2022/11/20 11:58:50;;;;;;;34.03;17.55;;;;;;;1.76;94.57;100896.22;5031951;28;20056;-76
2022/11/20 12:01:38;;;;;;;36.25;19.08;;;;;;;1.99;98.30;100905.25;5035082;28;20482;-77
2022/11/20 12:04:22;;;;;;;31.60;18.08;;;;;;;2.00;94.61;100895.81;5033490;28;20087;-74
2022/11/20 12:06:55;;;;;;;34.55;16.77;;;;;;;1.99;95.01;100899.75;5032424;28;20032;-74
2022/11/20 12:09:27;;;;;;;36.15;18.80;;;;;;;1.98;95.25;100909.97;5037481;28;20033;-74
2022/11/20 12:12:21;;;;;;;38.08;19.50;;;;;;;1.73;96.31;100903.22;5038495;28;20111;-74
2022/11/20 12:14:49;;;;;;;38.75;18.27;;;;;;;1.84;95.84;100892.69;5024822;28;20048;-76
2022/11/20 12:17:15;;;;;;;39.58;16.75;;;;;;;2.10;93.88;100884.50;5028350;28;20044;-75
2022/11/20 12:19:41;;;;;;;35.47;17.08;;;;;;;1.98;94.48;100873.25;5032164;28;20047;-75
2022/11/20 12:22:40;;;;;;;34.25;17.90;;;;;;;1.88;95.10;100877.13;5027719;28;20055;-75
2022/11/20 12:25:14;;;;;;;32.22;16.52;;;;;;;1.89;94.83;100872.41;5047734;28;20059;-75
2022/11/20 12:28:13;;;;;;;33.15;15.75;;;;;;;1.90;94.38;100868.50;5038976;28;20036;-75
2022/11/20 12:31:08;;;;;;;35.47;17.65;;;;;;;1.92;94.04;100861.56;5044758;28;20559;-76
2022/11/20 12:33:50;;;;;;;28.15;15.55;;;;;;;2.03;93.65;100859.31;5033541;28;20045;-75
2022/11/20 12:37:01;;;;;;;31.73;18.03;;;;;;;2.06;94.36;100852.34;5039933;28;20115;-76
2022/11/20 12:39:34;;;;;;;33.75;17.50;;;;;;;2.11;93.03;100838.38;5002532;28;20440;-76
2022/11/20 12:45:11;;;;;;;33.25;16.67;;;;;;;2.11;93.74;100836.44;5038851;28;20095;-75
2022/11/20 12:47:59;;;;;;;31.90;15.95;;;;;;;2.23;93.32;100844.06;5042334;28;20391;-75
2022/11/20 12:50:40;;;;;;;30.80;17.77;;;;;;;2.36;92.55;100831.25;5041517;28;20040;-75
2022/11/20 12:53:19;;;;;;;30.05;16.73;;;;;;;2.31;93.28;100821.19;5041541;28;20032;-76
2022/11/20 12:55:56;;;;;;;30.50;16.17;;;;;;;2.21;94.68;100819.56;5034515;28;20025;-75
2022/11/20 12:58:45;;;;;;;31.17;16.80;;;;;;;2.15;95.46;100815.31;5034755;28;20611;-74
2022/11/20 13:01:47;;;;;;;31.23;17.80;;;;;;;2.21;94.71;100808.50;5042830;28;20060;-75
2022/11/20 13:04:30;;;;;;;32.00;15.82;;;;;;;2.24;94.78;100807.84;5040324;28;20068;-75
2022/11/20 13:06:57;;;;;;;26.60;16.30;;;;;;;2.27;93.52;100800.06;5038901;28;20033;-75
2022/11/20 13:09:24;;;;;;;30.95;15.13;;;;;;;2.29;95.39;100797.78;5031934;28;20030;-75
2022/11/20 13:12:11;;;;;;;29.40;16.73;;;;;;;2.35;95.04;100802.03;5041780;28;20017;-75
2022/11/20 13:14:40;;;;;;;31.23;16.52;;;;;;;2.42;93.93;100796.81;5061214;28;20040;-76
2022/11/20 13:17:24;;;;;;;30.00;15.75;;;;;;;2.47;93.64;100793.91;5041925;28;20037;-75
2022/11/20 13:19:53;;;;;;;35.75;16.38;;;;;;;2.32;96.36;100786.91;5044482;28;20040;-75
2022/11/20 13:22:42;;;;;;;30.45;16.27;;;;;;;2.22;97.45;100784.47;5049891;28;20025;-76
2022/11/20 13:25:10;;;;;;;28.95;15.85;;;;;;;2.21;97.17;100778.13;5047315;28;20032;-75
2022/11/20 13:27:35;;;;;;;29.65;16.58;;;;;;;2.19;96.94;100763.00;5050565;28;20037;-75
2022/11/20 13:30:17;;;;;;;27.30;15.35;;;;;;;2.13;97.31;100756.84;5043995;28;20040;-75
2022/11/20 13:33:22;;;;;;;30.83;15.88;;;;;;;2.22;97.15;100759.63;5041885;28;20028;-75
2022/11/20 13:35:59;;;;;;;30.80;17.45;;;;;;;2.18;96.90;100759.44;5042932;28;20104;-75
2022/11/20 13:38:25;;;;;;;30.23;16.67;;;;;;;2.05;97.70;100734.75;5041216;28;20020;-75
2022/11/20 13:40:52;;;;;;;27.00;15.50;;;;;;;2.14;97.17;100761.22;5041306;28;20040;-74
2022/11/20 13:43:41;;;;;;;29.35;15.93;;;;;;;2.24;96.60;100757.34;5038624;28;20032;-75
2022/11/20 13:46:09;;;;;;;29.00;15.50;;;;;;;2.22;97.18;100738.31;5043977;28;20059;-74
2022/11/20 13:48:46;;;;;;;33.20;17.63;;;;;;;2.23;96.54;100742.72;5040870;28;20483;-75
2022/11/20 13:51:43;;;;;;;31.55;18.63;;;;;;;2.30;95.77;100744.16;5042858;28;20029;-75
2022/11/20 13:54:26;;;;;;;28.02;15.45;;;;;;;2.16;97.09;100742.38;5045073;28;20025;-75
2022/11/20 13:57:27;;;;;;;32.35;15.90;;;;;;;2.22;96.75;100738.31;5041832;28;20073;-74
2022/11/20 14:00:12;;;;;;;28.95;14.85;;;;;;;2.17;97.19;100732.97;5046701;28;20036;-76
2022/11/20 14:02:37;;;;;;;24.95;16.02;;;;;;;2.13;97.66;100728.41;5043542;28;20147;-75
2022/11/20 14:05:04;;;;;;;27.80;16.27;;;;;;;2.32;96.80;100726.16;5047299;28;20116;-75
2022/11/20 14:07:39;;;;;;;29.27;14.98;;;;;;;2.20;97.64;100720.47;5068745;28;20120;-75
2022/11/20 14:10:05;;;;;;;25.63;15.02;;;;;;;2.27;96.71;100722.72;5049196;28;20036;-76
2022/11/20 14:12:33;;;;;;;31.23;17.40;;;;;;;2.29;96.63;100721.25;5049371;28;20063;-75
2022/11/20 14:14:58;;;;;;;29.25;16.95;;;;;;;2.19;97.46;100716.91;5048827;28;20099;-75
2022/11/20 14:17:33;;;;;;;27.63;15.68;;;;;;;2.21;96.53;100714.63;5044836;28;20029;-75
2022/11/20 14:20:03;;;;;;;29.55;14.88;;;;;;;2.33;95.91;100713.94;5043238;28;20026;-76
2022/11/20 14:22:29;;;;;;;27.30;16.42;;;;;;;2.34;96.49;100689.91;5042814;28;20468;-75
2022/11/20 14:25:05;;;;;;;27.63;15.00;;;;;;;2.31;96.23;100696.09;5050406;28;20029;-76
2022/11/20 14:27:34;;;;;;;24.92;15.35;;;;;;;2.23;96.58;100690.25;5042145;28;20037;-76
2022/11/20 14:30:01;;;;;;;26.58;16.38;;;;;;;2.24;96.65;100680.81;5042508;28;20252;-75
2022/11/20 14:32:29;;;;;;;26.73;15.70;;;;;;;2.24;96.94;100678.06;5043417;28;20025;-76
2022/11/20 14:34:59;;;;;;;27.67;15.10;;;;;;;2.21;96.06;100672.38;5040419;28;20037;-75
2022/11/20 14:37:28;;;;;;;26.73;13.82;;;;;;;2.17;96.02;100661.19;5055686;28;20037;-76
2022/11/20 14:39:55;;;;;;;31.73;16.10;;;;;;;2.21;95.93;100656.63;5049757;28;20029;-75
2022/11/20 14:42:25;;;;;;;28.42;14.80;;;;;;;2.18;95.97;100659.22;5041515;28;20044;-74
2022/11/20 14:44:55;;;;;;;27.63;15.93;;;;;;;2.10;95.78;100647.03;5047827;28;20476;-76
2022/11/20 14:47:24;;;;;;;34.40;17.88;;;;;;;2.10;96.77;100644.28;5036125;28;20130;-74
2022/11/20 14:49:52;;;;;;;27.88;15.93;;;;;;;2.16;95.99;100640.22;5044127;28;20025;-76
2022/11/20 14:52:20;;;;;;;31.70;15.48;;;;;;;2.19;96.18;100650.63;5047799;28;20029;-75
2022/11/20 14:55:07;;;;;;;29.65;16.25;;;;;;;2.28;96.26;100641.47;5048944;28;20036;-75
2022/11/20 14:57:35;;;;;;;29.50;15.80;;;;;;;2.34;95.21;100631.88;5047961;28;20129;-76
2022/11/20 15:00:13;;;;;;;27.75;15.43;;;;;;;2.32;95.59;100620.34;5046371;28;20052;-76
2022/11/20 15:02:41;;;;;;;32.65;16.95;;;;;;;2.26;95.51;100627.19;5046944;28;20040;-76
2022/11/20 15:05:07;;;;;;;22.42;13.88;;;;;;;2.13;95.70;100610.50;5046291;28;20510;-76
2022/11/20 15:07:35;;;;;;;29.08;16.85;;;;;;;2.13;95.96;100612.44;5044727;28;20139;-76
2022/11/20 15:10:07;;;;;;;30.08;15.85;;;;;;;2.13;96.11;100607.75;5042271;28;20040;-76
2022/11/20 15:12:36;;;;;;;37.45;19.10;;;;;;;2.14;96.02;100609.34;5048051;28;20414;-75
2022/11/20 15:15:03;;;;;;;31.38;17.50;;;;;;;2.09;96.35;100603.19;5042483;28;20515;-75
2022/11/20 15:17:30;;;;;;;31.52;16.88;;;;;;;2.12;96.22;100595.06;5041041;28;20029;-76
2022/11/20 15:19:55;;;;;;;28.77;17.70;;;;;;;2.15;96.01;100594.41;5045496;28;20036;-77
2022/11/20 15:22:21;;;;;;;28.55;17.75;;;;;;;2.18;95.67;100587.44;5050521;28;20078;-75
2022/11/20 15:24:46;;;;;;;31.80;15.95;;;;;;;2.27;95.83;100592.94;5044586;28;20024;-76
2022/11/20 15:27:12;;;;;;;30.80;16.38;;;;;;;2.36;95.82;100588.19;5049699;28;20540;-76
2022/11/20 15:29:37;;;;;;;27.73;17.38;;;;;;;2.37;95.80;100587.06;5044688;28;20085;-74
2022/11/20 15:32:02;;;;;;;32.30;16.80;;;;;;;2.22;96.12;100594.72;5039563;28;20548;-77
2022/11/20 15:34:28;;;;;;;37.80;18.35;;;;;;;2.21;96.84;100598.63;5040193;28;20025;-75
2022/11/20 15:36:54;;;;;;;35.95;16.80;;;;;;;2.28;96.47;100592.59;5041584;28;20467;-76
2022/11/20 15:39:19;;;;;;;29.75;16.00;;;;;;;2.24;97.40;100594.41;5039794;28;20487;-75
2022/11/20 15:41:45;;;;;;;32.13;17.70;;;;;;;2.29;96.66;100596.97;5031123;28;20361;-75
2022/11/20 15:44:10;;;;;;;29.63;17.25;;;;;;;2.26;97.95;100592.13;5034547;28;20044;-75
2022/11/20 15:46:39;;;;;;;33.78;17.05;;;;;;;2.72;98.10;100584.16;5039040;28;20549;-76
2022/11/20 15:49:06;;;;;;;36.35;18.33;;;;;;;2.47;97.56;100583.94;5047089;28;20024;-75
2022/11/20 15:51:36;;;;;;;37.53;19.38;;;;;;;2.28;99.68;100594.53;5053055;28;20025;-76
2022/11/20 15:54:10;;;;;;;38.53;19.77;;;;;;;2.30;99.71;100589.50;5059415;28;20033;-76
2022/11/20 15:56:35;;;;;;;59.78;32.05;;;;;;;2.19;100.00;100584.34;5053097;28;20091;-75
2022/11/20 15:59:03;;;;;;;41.28;22.23;;;;;;;2.08;100.00;100588.56;5057095;28;20020;-75
2022/11/20 16:01:28;;;;;;;39.33;20.15;;;;;;;2.21;100.00;100582.06;5054834;28;20029;-75
2022/11/20 16:03:54;;;;;;;39.70;21.13;;;;;;;2.27;100.00;100581.88;5052835;28;20135;-75
2022/11/20 16:06:19;;;;;;;55.55;29.15;;;;;;;2.33;100.00;100580.56;5055252;28;20053;-76
2022/11/20 16:08:45;;;;;;;38.53;20.13;;;;;;;2.23;100.00;100571.50;5072203;28;20067;-75
2022/11/20 16:11:15;;;;;;;44.25;22.58;;;;;;;2.21;100.00;100571.03;5056902;28;20044;-76
2022/11/20 16:16:30;;;;;;;37.95;19.73;;;;;;;2.35;100.00;100557.00;5054011;28;20044;-76
2022/11/20 16:18:56;;;;;;;45.40;22.95;;;;;;;2.23;100.00;100560.47;5056299;28;20040;-75
2022/11/20 16:21:27;;;;;;;41.20;19.70;;;;;;;2.21;100.00;100546.16;5052243;28;20140;-75
2022/11/20 16:23:53;;;;;;;41.85;21.27;;;;;;;2.09;100.00;100545.19;5052229;28;20118;-76
2022/11/20 16:26:20;;;;;;;41.83;22.80;;;;;;;2.22;100.00;100545.00;5047844;28;20025;-77
2022/11/20 16:28:45;;;;;;;50.72;26.23;;;;;;;2.31;100.00;100547.75;5047727;28;20137;-76
2022/11/20 16:31:16;;;;;;;39.33;21.92;;;;;;;2.37;100.00;100540.91;5049054;28;20865;-76
2022/11/20 16:33:41;;;;;;;41.83;23.08;;;;;;;2.30;100.00;100537.00;5060600;28;20033;-76
2022/11/20 16:36:12;;;;;;;35.42;19.65;;;;;;;2.26;100.00;100531.38;5046177;28;20407;-76
2022/11/20 16:38:37;;;;;;;44.20;22.65;;;;;;;2.23;100.00;100535.59;5063139;28;20262;-76
2022/11/20 16:41:03;;;;;;;49.92;25.05;;;;;;;2.21;100.00;100537.88;5052004;28;20069;-76
2022/11/20 16:43:29;;;;;;;34.53;20.00;;;;;;;2.37;100.00;100540.09;5038083;28;20070;-75
2022/11/20 16:45:54;;;;;;;43.70;21.08;;;;;;;2.35;100.00;100531.31;5044475;28;20024;-75
2022/11/20 16:48:19;;;;;;;45.67;21.23;;;;;;;2.38;100.00;100536.19;5041757;28;20323;-74
2022/11/20 16:50:50;;;;;;;68.50;36.55;;;;;;;3.61;100.00;100532.31;5057633;28;20099;-74
2022/11/20 16:53:17;;;;;;;45.00;23.23;;;;;;;2.84;100.00;100540.03;5048349;28;20020;-75
2022/11/20 16:55:43;;;;;;;45.22;23.83;;;;;;;2.40;100.00;100539.41;5069719;28;20043;-76
2022/11/20 16:58:09;;;;;;;44.00;21.23;;;;;;;2.09;100.00;100543.28;5055404;28;20025;-75
2022/11/20 17:00:38;;;;;;;53.13;24.13;;;;;;;2.06;100.00;100543.09;5055217;28;20388;-74
2022/11/20 17:03:05;;;;;;;43.55;21.58;;;;;;;2.02;100.00;100540.19;5068644;28;20033;-75
2022/11/20 17:05:31;;;;;;;45.72;23.48;;;;;;;2.02;100.00;100546.53;5045806;28;21583;-76
2022/11/20 17:07:56;;;;;;;45.92;22.58;;;;;;;2.00;100.00;100536.94;5049185;28;20029;-75
2022/11/20 17:10:22;;;;;;;44.65;23.80;;;;;;;1.91;100.00;100530.66;5051350;28;20161;-74
2022/11/20 17:12:47;;;;;;;48.38;23.33;;;;;;;1.89;100.00;100532.91;5035486;28;20045;-74
2022/11/20 17:15:12;;;;;;;47.88;22.08;;;;;;;1.94;100.00;100535.50;5036475;28;20037;-74
2022/11/20 17:17:38;;;;;;;42.00;21.85;;;;;;;2.06;100.00;100535.63;5034914;28;20126;-73
2022/11/20 17:20:04;;;;;;;50.85;23.95;;;;;;;1.98;100.00;100533.69;5030863;28;20040;-73
2022/11/20 17:22:30;;;;;;;44.30;22.52;;;;;;;1.96;100.00;100524.94;5032834;28;20519;-73
2022/11/20 17:24:55;;;;;;;43.35;23.02;;;;;;;1.86;100.00;100520.59;5029674;28;20025;-75
2022/11/20 17:27:21;;;;;;;62.05;30.10;;;;;;;1.81;100.00;100520.75;5035788;28;20029;-75
2022/11/20 17:29:46;;;;;;;55.55;27.75;;;;;;;1.86;100.00;100517.03;5037635;28;20025;-75
2022/11/20 17:32:11;;;;;;;46.28;26.02;;;;;;;1.81;100.00;100520.75;5039901;28;20124;-76
2022/11/20 17:34:37;;;;;;;54.67;26.77;;;;;;;1.66;100.00;100516.56;5042767;28;20119;-76
2022/11/20 17:37:02;;;;;;;54.25;26.38;;;;;;;1.58;100.00;100514.59;5042578;28;20152;-76
2022/11/20 17:39:28;;;;;;;48.83;23.33;;;;;;;1.56;100.00;100516.88;5040009;28;20033;-75
2022/11/20 17:44:37;;;;;;;56.75;27.52;;;;;;;1.51;100.00;100500.50;5043915;28;20035;-76
2022/11/20 17:47:02;;;;;;;50.75;26.77;;;;;;;1.71;100.00;100508.13;5035887;28;20033;-76